sensor_id;sensor_type;location;lat;lon;timestamp;pressure;altitude;pressure_sealevel;temperature;humidity
18765;BME280;9511;54.242;12.448;2024-03-23T00:52:15;100571.00;;;5.59;100.00
18765;BME280;9511;54.242;12.448;2024-03-23T00:54:42;100570.16;;;5.60;100.00
18765;BME280;9511;54.242;12.448;2024-03-23T00:57:09;100554.28;;;5.57;100.00
18765;BME280;9511;54.242;12.448;2024-03-23T00:59:35;100556.84;;;5.56;100.00
18765;BME280;9511;54.242;12.448;2024-03-23T01:02:03;100560.25;;;5.53;100.00
18765;BME280;9511;54.242;12.448;2024-03-23T01:04:29;100572.56;;;5.56;100.00
18765;BME280;9511;54.242;12.448;2024-03-23T01:06:56;100557.75;;;5.56;100.00
18765;BME280;9511;54.242;12.448;2024-03-23T01:09:24;100555.81;;;5.52;100.00
18765;BME280;9511;54.242;12.448;2024-03-23T01:11:51;100551.34;;;5.50;100.00
18765;BME280;9511;54.242;12.448;2024-03-23T01:14:17;100548.78;;;5.51;100.00
18765;BME280;9511;54.242;12.448;2024-03-23T01:16:44;100550.31;;;5.46;100.00
18765;BME280;9511;54.242;12.448;2024-03-23T01:19:10;100529.44;;;5.49;100.00
18765;BME280;9511;54.242;12.448;2024-03-23T01:21:37;100530.97;;;5.44;100.00
18765;BME280;9511;54.242;12.448;2024-03-23T01:24:04;100530.19;;;5.45;100.00
18765;BME280;9511;54.242;12.448;2024-03-23T01:26:33;100522.94;;;5.40;100.00
18765;BME280;9511;54.242;12.448;2024-03-23T01:28:59;100527.16;;;5.36;100.00
18765;BME280;9511;54.242;12.448;2024-03-23T01:31:26;100520.13;;;5.35;100.00
18765;BME280;9511;54.242;12.448;2024-03-23T01:33:52;100525.47;;;5.38;100.00
18765;BME280;9511;54.242;12.448;2024-03-23T01:36:19;100526.97;;;5.31;100.00
18765;BME280;9511;54.242;12.448;2024-03-23T01:38:45;100506.75;;;5.29;100.00
18765;BME280;9511;54.242;12.448;2024-03-23T01:41:13;100504.88;;;5.26;100.00
18765;BME280;9511;54.242;12.448;2024-03-23T01:43:40;100512.69;;;5.25;100.00
18765;BME280;9511;54.242;12.448;2024-03-23T01:46:08;100511.81;;;5.24;100.00
18765;BME280;9511;54.242;12.448;2024-03-23T01:48:34;100505.66;;;5.24;100.00
18765;BME280;9511;54.242;12.448;2024-03-23T01:51:01;100505.78;;;5.27;100.00
18765;BME280;9511;54.242;12.448;2024-03-23T01:53:28;100511.84;;;5.26;100.00
18765;BME280;9511;54.242;12.448;2024-03-23T01:55:55;100502.00;;;5.20;100.00
18765;BME280;9511;54.242;12.448;2024-03-23T01:58:22;100501.13;;;5.20;100.00
18765;BME280;9511;54.242;12.448;2024-03-23T02:00:51;100498.38;;;5.17;100.00
18765;BME280;9511;54.242;12.448;2024-03-23T02:03:25;100493.06;;;5.15;100.00
18765;BME280;9511;54.242;12.448;2024-03-23T02:05:53;100492.88;;;5.11;100.00
18765;BME280;9511;54.242;12.448;2024-03-23T02:08:21;100494.53;;;5.09;100.00
18765;BME280;9511;54.242;12.448;2024-03-23T02:10:48;100495.50;;;5.11;100.00
18765;BME280;9511;54.242;12.448;2024-03-23T02:13:15;100477.84;;;5.06;100.00
18765;BME280;9511;54.242;12.448;2024-03-23T02:15:42;100487.34;;;5.04;100.00
18765;BME280;9511;54.242;12.448;2024-03-23T02:18:10;100477.00;;;5.07;100.00
18765;BME280;9511;54.242;12.448;2024-03-23T02:20:37;100473.34;;;5.04;100.00
18765;BME280;9511;54.242;12.448;2024-03-23T02:23:05;100462.94;;;5.05;100.00
18765;BME280;9511;54.242;12.448;2024-03-23T02:25:33;100461.84;;;5.00;100.00
18765;BME280;9511;54.242;12.448;2024-03-23T02:27:59;100459.09;;;4.97;100.00
18765;BME280;9511;54.242;12.448;2024-03-23T02:30:26;100464.22;;;4.94;100.00
18765;BME280;9511;54.242;12.448;2024-03-23T02:32:53;100464.06;;;4.91;100.00
18765;BME280;9511;54.242;12.448;2024-03-23T02:35:20;100453.59;;;4.91;100.00
18765;BME280;9511;54.242;12.448;2024-03-23T02:37:46;100450.91;;;4.90;100.00
18765;BME280;9511;54.242;12.448;2024-03-23T02:40:16;100445.78;;;4.93;100.00
18765;BME280;9511;54.242;12.448;2024-03-23T02:42:42;100464.06;;;4.91;100.00
18765;BME280;9511;54.242;12.448;2024-03-23T02:45:09;100463.19;;;4.91;100.00
18765;BME280;9511;54.242;12.448;2024-03-23T02:47:36;100456.22;;;4.91;100.00
18765;BME280;9511;54.242;12.448;2024-03-23T02:50:04;100439.53;;;4.89;100.00
18765;BME280;9511;54.242;12.448;2024-03-23T02:52:30;100440.44;;;4.90;100.00
18765;BME280;9511;54.242;12.448;2024-03-23T02:54:57;100445.53;;;4.87;100.00
18765;BME280;9511;54.242;12.448;2024-03-23T02:57:25;100446.34;;;4.86;100.00
18765;BME280;9511;54.242;12.448;2024-03-23T02:59:52;100441.06;;;4.84;100.00
18765;BME280;9511;54.242;12.448;2024-03-23T03:02:19;100440.13;;;4.82;100.00
18765;BME280;9511;54.242;12.448;2024-03-23T03:04:47;100431.16;;;4.77;100.00
18765;BME280;9511;54.242;12.448;2024-03-23T03:07:14;100428.38;;;4.74;100.00
18765;BME280;9511;54.242;12.448;2024-03-23T03:09:41;100433.63;;;4.74;100.00
18765;BME280;9511;54.242;12.448;2024-03-23T03:12:08;100436.94;;;4.70;100.00
18765;BME280;9511;54.242;12.448;2024-03-23T03:14:36;100429.91;;;4.69;100.00
18765;BME280;9511;54.242;12.448;2024-03-23T03:17:03;100419.31;;;4.66;100.00
18765;BME280;9511;54.242;12.448;2024-03-23T03:19:30;100416.59;;;4.64;100.00
18765;BME280;9511;54.242;12.448;2024-03-23T03:21:57;100416.56;;;4.63;100.00
18765;BME280;9511;54.242;12.448;2024-03-23T03:24:24;100409.59;;;4.63;100.00
18765;BME280;9511;54.242;12.448;2024-03-23T03:26:50;100399.81;;;4.59;100.00
18765;BME280;9511;54.242;12.448;2024-03-23T03:29:17;100394.38;;;4.55;100.00
18765;BME280;9511;54.242;12.448;2024-03-23T03:31:45;100386.53;;;4.55;100.00
18765;BME280;9511;54.242;12.448;2024-03-23T03:34:12;100387.22;;;4.50;100.00
18765;BME280;9511;54.242;12.448;2024-03-23T03:36:38;100386.25;;;4.48;100.00
18765;BME280;9511;54.242;12.448;2024-03-23T03:39:05;100393.06;;;4.45;100.00
18765;BME280;9511;54.242;12.448;2024-03-23T03:41:32;100385.78;;;4.38;100.00
18765;BME280;9511;54.242;12.448;2024-03-23T03:44:00;100383.84;;;4.34;100.00
18765;BME280;9511;54.242;12.448;2024-03-23T03:46:28;100388.88;;;4.29;100.00
18765;BME280;9511;54.242;12.448;2024-03-23T03:48:56;100387.00;;;4.25;100.00
18765;BME280;9511;54.242;12.448;2024-03-23T03:51:23;100385.88;;;4.20;100.00
18765;BME280;9511;54.242;12.448;2024-03-23T03:53:50;100386.50;;;4.14;100.00
18765;BME280;9511;54.242;12.448;2024-03-23T03:56:16;100378.38;;;4.08;100.00
18765;BME280;9511;54.242;12.448;2024-03-23T03:58:43;100377.41;;;4.06;100.00
18765;BME280;9511;54.242;12.448;2024-03-23T04:01:10;100367.69;;;4.04;100.00
18765;BME280;9511;54.242;12.448;2024-03-23T04:03:37;100371.78;;;3.97;100.00
18765;BME280;9511;54.242;12.448;2024-03-23T04:06:07;100370.00;;;3.96;100.00
18765;BME280;9511;54.242;12.448;2024-03-23T04:08:34;100365.22;;;3.87;100.00
18765;BME280;9511;54.242;12.448;2024-03-23T04:11:00;100356.41;;;3.85;100.00
18765;BME280;9511;54.242;12.448;2024-03-23T04:13:27;100350.91;;;3.79;100.00
18765;BME280;9511;54.242;12.448;2024-03-23T04:15:54;100355.97;;;3.76;100.00
18765;BME280;9511;54.242;12.448;2024-03-23T04:18:21;100358.53;;;3.75;100.00
18765;BME280;9511;54.242;12.448;2024-03-23T04:20:48;100354.94;;;3.72;100.00
18765;BME280;9511;54.242;12.448;2024-03-23T04:23:17;100344.19;;;3.66;100.00
18765;BME280;9511;54.242;12.448;2024-03-23T04:25:43;100343.19;;;3.63;100.00
18765;BME280;9511;54.242;12.448;2024-03-23T04:28:11;100344.00;;;3.62;100.00
18765;BME280;9511;54.242;12.448;2024-03-23T04:30:37;100334.91;;;3.54;100.00
18765;BME280;9511;54.242;12.448;2024-03-23T04:33:04;100336.63;;;3.53;100.00
18765;BME280;9511;54.242;12.448;2024-03-23T04:35:31;100329.44;;;3.49;100.00
18765;BME280;9511;54.242;12.448;2024-03-23T04:37:58;100332.78;;;3.45;100.00
18765;BME280;9511;54.242;12.448;2024-03-23T04:40:27;100332.69;;;3.43;100.00
18765;BME280;9511;54.242;12.448;2024-03-23T04:42:54;100332.56;;;3.40;100.00
18765;BME280;9511;54.242;12.448;2024-03-23T04:45:21;100333.50;;;3.42;100.00
18765;BME280;9511;54.242;12.448;2024-03-23T04:47:49;100340.53;;;3.43;100.00
18765;BME280;9511;54.242;12.448;2024-03-23T04:50:16;100336.19;;;3.44;100.00
18765;BME280;9511;54.242;12.448;2024-03-23T04:52:44;100333.50;;;3.42;100.00
18765;BME280;9511;54.242;12.448;2024-03-23T04:55:10;100336.00;;;3.39;100.00
18765;BME280;9511;54.242;12.448;2024-03-23T04:57:39;100331.59;;;3.38;100.00
18765;BME280;9511;54.242;12.448;2024-03-23T05:00:07;100334.06;;;3.35;100.00
18765;BME280;9511;54.242;12.448;2024-03-23T05:02:44;100331.16;;;3.29;100.00
18765;BME280;9511;54.242;12.448;2024-03-23T05:05:11;100329.50;;;3.31;100.00
18765;BME280;9511;54.242;12.448;2024-03-23T05:07:38;100327.72;;;3.30;100.00
18765;BME280;9511;54.242;12.448;2024-03-23T05:10:05;100324.97;;;3.27;100.00
18765;BME280;9511;54.242;12.448;2024-03-23T05:12:36;100323.84;;;3.22;100.00
18765;BME280;9511;54.242;12.448;2024-03-23T05:15:04;100318.53;;;3.20;100.00
18765;BME280;9511;54.242;12.448;2024-03-23T05:17:32;100315.63;;;3.14;100.00
18765;BME280;9511;54.242;12.448;2024-03-23T05:19:58;100323.41;;;3.13;100.00
18765;BME280;9511;54.242;12.448;2024-03-23T05:22:25;100317.97;;;3.08;100.00
18765;BME280;9511;54.242;12.448;2024-03-23T05:24:51;100321.31;;;3.06;100.00
18765;BME280;9511;54.242;12.448;2024-03-23T05:27:18;100322.94;;;3.04;100.00
18765;BME280;9511;54.242;12.448;2024-03-23T05:29:45;100318.84;;;3.09;100.00
18765;BME280;9511;54.242;12.448;2024-03-23T05:32:14;100306.66;;;3.09;100.00
18765;BME280;9511;54.242;12.448;2024-03-23T05:34:40;100316.41;;;3.12;100.00
18765;BME280;9511;54.242;12.448;2024-03-23T05:37:08;100311.16;;;3.12;100.00
18765;BME280;9511;54.242;12.448;2024-03-23T05:39:34;100312.94;;;3.13;100.00
18765;BME280;9511;54.242;12.448;2024-03-23T05:42:01;100314.00;;;3.16;100.00
18765;BME280;9511;54.242;12.448;2024-03-23T05:44:27;100322.88;;;3.20;100.00
18765;BME280;9511;54.242;12.448;2024-03-23T05:46:54;100316.81;;;3.21;100.00
18765;BME280;9511;54.242;12.448;2024-03-23T05:49:22;100331.75;;;3.24;100.00
18765;BME280;9511;54.242;12.448;2024-03-23T05:51:50;100332.66;;;3.24;100.00
18765;BME280;9511;54.242;12.448;2024-03-23T05:54:17;100330.25;;;3.29;100.00
18765;BME280;9511;54.242;12.448;2024-03-23T05:56:44;100322.63;;;3.33;100.00
18765;BME280;9511;54.242;12.448;2024-03-23T05:59:10;100324.44;;;3.34;100.00
18765;BME280;9511;54.242;12.448;2024-03-23T06:01:37;100311.56;;;3.39;100.00
18765;BME280;9511;54.242;12.448;2024-03-23T06:04:05;100312.97;;;3.50;100.00
18765;BME280;9511;54.242;12.448;2024-03-23T06:06:33;100308.19;;;3.61;100.00
18765;BME280;9511;54.242;12.448;2024-03-23T06:09:00;100306.16;;;3.73;100.00
18765;BME280;9511;54.242;12.448;2024-03-23T06:11:27;100313.16;;;3.93;100.00
18765;BME280;9511;54.242;12.448;2024-03-23T06:13:53;100307.31;;;4.60;100.00
18765;BME280;9511;54.242;12.448;2024-03-23T06:16:20;100300.97;;;4.34;100.00
18765;BME280;9511;54.242;12.448;2024-03-23T06:18:49;100302.19;;;5.06;100.00
18765;BME280;9511;54.242;12.448;2024-03-23T06:21:16;100304.88;;;5.77;100.00
18765;BME280;9511;54.242;12.448;2024-03-23T06:23:44;100304.59;;;5.45;100.00
18765;BME280;9511;54.242;12.448;2024-03-23T06:26:17;100286.59;;;6.79;100.00
18765;BME280;9511;54.242;12.448;2024-03-23T06:28:43;100298.53;;;6.96;100.00
18765;BME280;9511;54.242;12.448;2024-03-23T06:31:11;100303.31;;;6.30;100.00
18765;BME280;9511;54.242;12.448;2024-03-23T06:33:37;100314.34;;;5.96;100.00
18765;BME280;9511;54.242;12.448;2024-03-23T06:36:05;100320.34;;;5.69;100.00
18765;BME280;9511;54.242;12.448;2024-03-23T06:38:32;100305.81;;;6.01;100.00
18765;BME280;9511;54.242;12.448;2024-03-23T06:41:02;100294.78;;;5.64;100.00
18765;BME280;9511;54.242;12.448;2024-03-23T06:43:28;100291.28;;;6.11;100.00
18765;BME280;9511;54.242;12.448;2024-03-23T06:45:56;100298.31;;;5.88;100.00
18765;BME280;9511;54.242;12.448;2024-03-23T06:48:22;100295.09;;;5.95;100.00
18765;BME280;9511;54.242;12.448;2024-03-23T06:50:49;100302.41;;;5.80;100.00
18765;BME280;9511;54.242;12.448;2024-03-23T06:53:20;100287.44;;;6.01;100.00
18765;BME280;9511;54.242;12.448;2024-03-23T06:55:50;100283.44;;;6.12;100.00
18765;BME280;9511;54.242;12.448;2024-03-23T06:58:18;100270.63;;;6.47;100.00
18765;BME280;9511;54.242;12.448;2024-03-23T07:00:45;100270.78;;;6.01;100.00
18765;BME280;9511;54.242;12.448;2024-03-23T07:03:12;100260.69;;;6.37;100.00
18765;BME280;9511;54.242;12.448;2024-03-23T07:05:39;100248.69;;;6.45;100.00
18765;BME280;9511;54.242;12.448;2024-03-23T07:08:05;100246.00;;;6.44;100.00
18765;BME280;9511;54.242;12.448;2024-03-23T07:10:33;100246.75;;;6.14;100.00
18765;BME280;9511;54.242;12.448;2024-03-23T07:12:59;100254.88;;;5.96;100.00
18765;BME280;9511;54.242;12.448;2024-03-23T07:15:28;100265.03;;;5.87;100.00
18765;BME280;9511;54.242;12.448;2024-03-23T07:17:54;100254.41;;;5.84;100.00
18765;BME280;9511;54.242;12.448;2024-03-23T07:20:21;100244.06;;;5.89;100.00
18765;BME280;9511;54.242;12.448;2024-03-23T07:22:47;100254.31;;;5.81;100.00
18765;BME280;9511;54.242;12.448;2024-03-23T07:25:15;100252.41;;;5.77;100.00
18765;BME280;9511;54.242;12.448;2024-03-23T07:27:41;100246.75;;;5.66;100.00
18765;BME280;9511;54.242;12.448;2024-03-23T07:30:08;100244.75;;;5.83;100.00
18765;BME280;9511;54.242;12.448;2024-03-23T07:32:36;100248.22;;;5.82;100.00
18765;BME280;9511;54.242;12.448;2024-03-23T07:35:04;100256.09;;;5.82;100.00
18765;BME280;9511;54.242;12.448;2024-03-23T07:37:30;100250.00;;;5.83;100.00
18765;BME280;9511;54.242;12.448;2024-03-23T07:39:57;100252.31;;;5.74;100.00
18765;BME280;9511;54.242;12.448;2024-03-23T07:42:24;100242.84;;;5.79;100.00
18765;BME280;9511;54.242;12.448;2024-03-23T07:44:52;100249.06;;;5.81;100.00
18765;BME280;9511;54.242;12.448;2024-03-23T07:47:21;100244.13;;;5.90;100.00
18765;BME280;9511;54.242;12.448;2024-03-23T07:49:49;100246.75;;;5.90;100.00
18765;BME280;9511;54.242;12.448;2024-03-23T07:52:15;100245.81;;;5.88;100.00
18765;BME280;9511;54.242;12.448;2024-03-23T07:54:42;100246.84;;;5.92;100.00
18765;BME280;9511;54.242;12.448;2024-03-23T07:57:09;100241.91;;;6.01;100.00
18765;BME280;9511;54.242;12.448;2024-03-23T07:59:36;100233.56;;;6.12;100.00
18765;BME280;9511;54.242;12.448;2024-03-23T08:02:03;100233.28;;;6.30;100.00
18765;BME280;9511;54.242;12.448;2024-03-23T08:04:30;100226.09;;;6.50;100.00
18765;BME280;9511;54.242;12.448;2024-03-23T08:06:58;100220.56;;;6.70;100.00
18765;BME280;9511;54.242;12.448;2024-03-23T08:09:25;100217.19;;;6.74;100.00
18765;BME280;9511;54.242;12.448;2024-03-23T08:11:52;100217.00;;;6.68;100.00
18765;BME280;9511;54.242;12.448;2024-03-23T08:14:18;100214.72;;;6.78;98.88
18765;BME280;9511;54.242;12.448;2024-03-23T08:16:46;100201.13;;;6.64;97.96
18765;BME280;9511;54.242;12.448;2024-03-23T08:19:15;100206.09;;;6.55;97.56
18765;BME280;9511;54.242;12.448;2024-03-23T08:21:42;100192.19;;;6.86;96.79
18765;BME280;9511;54.242;12.448;2024-03-23T08:24:10;100193.00;;;6.84;95.84
18765;BME280;9511;54.242;12.448;2024-03-23T08:26:37;100192.53;;;6.99;96.26
18765;BME280;9511;54.242;12.448;2024-03-23T08:29:04;100192.66;;;7.02;95.11
18765;BME280;9511;54.242;12.448;2024-03-23T08:31:32;100188.06;;;7.25;94.24
18765;BME280;9511;54.242;12.448;2024-03-23T08:33:58;100187.56;;;7.38;92.79
18765;BME280;9511;54.242;12.448;2024-03-23T08:36:25;100187.34;;;7.30;91.86
18765;BME280;9511;54.242;12.448;2024-03-23T08:38:51;100177.75;;;7.32;90.98
18765;BME280;9511;54.242;12.448;2024-03-23T08:41:21;100180.69;;;7.43;91.13
18765;BME280;9511;54.242;12.448;2024-03-23T08:43:47;100167.47;;;7.40;90.70
18765;BME280;9511;54.242;12.448;2024-03-23T08:46:15;100175.97;;;7.31;89.94
18765;BME280;9511;54.242;12.448;2024-03-23T08:48:43;100169.16;;;7.38;89.10
18765;BME280;9511;54.242;12.448;2024-03-23T08:51:12;100172.53;;;7.34;88.25
18765;BME280;9511;54.242;12.448;2024-03-23T08:53:39;100173.84;;;7.48;88.82
18765;BME280;9511;54.242;12.448;2024-03-23T08:56:07;100169.19;;;7.39;87.55
18765;BME280;9511;54.242;12.448;2024-03-23T08:58:36;100168.47;;;7.45;87.72
18765;BME280;9511;54.242;12.448;2024-03-23T09:01:07;100159.91;;;7.52;87.14
18765;BME280;9511;54.242;12.448;2024-03-23T09:03:34;100158.41;;;7.62;87.36
18765;BME280;9511;54.242;12.448;2024-03-23T09:06:01;100152.38;;;7.66;86.76
18765;BME280;9511;54.242;12.448;2024-03-23T09:08:28;100155.69;;;7.57;85.82
18765;BME280;9511;54.242;12.448;2024-03-23T09:10:55;100152.81;;;7.81;85.73
18765;BME280;9511;54.242;12.448;2024-03-23T09:13:21;100151.06;;;7.82;85.94
18765;BME280;9511;54.242;12.448;2024-03-23T09:15:51;100150.34;;;7.89;85.50
18765;BME280;9511;54.242;12.448;2024-03-23T09:18:20;100150.28;;;7.86;85.28
18765;BME280;9511;54.242;12.448;2024-03-23T09:20:47;100146.50;;;7.75;84.50
18765;BME280;9511;54.242;12.448;2024-03-23T09:23:13;100152.50;;;7.70;84.49
18765;BME280;9511;54.242;12.448;2024-03-23T09:25:41;100152.75;;;7.80;84.43
18765;BME280;9511;54.242;12.448;2024-03-23T09:28:07;100157.41;;;7.90;84.33
18765;BME280;9511;54.242;12.448;2024-03-23T09:30:35;100147.66;;;7.86;83.93
18765;BME280;9511;54.242;12.448;2024-03-23T09:33:04;100144.03;;;7.82;83.23
18765;BME280;9511;54.242;12.448;2024-03-23T09:35:31;100149.56;;;7.91;83.30
18765;BME280;9511;54.242;12.448;2024-03-23T09:37:57;100147.81;;;7.92;82.55
18765;BME280;9511;54.242;12.448;2024-03-23T09:40:24;100149.16;;;8.11;83.04
18765;BME280;9511;54.242;12.448;2024-03-23T09:42:50;100144.47;;;8.34;81.96
18765;BME280;9511;54.242;12.448;2024-03-23T09:45:21;100144.09;;;8.20;81.09
18765;BME280;9511;54.242;12.448;2024-03-23T09:47:48;100136.31;;;8.24;80.89
18765;BME280;9511;54.242;12.448;2024-03-23T09:50:18;100130.13;;;8.22;80.95
18765;BME280;9511;54.242;12.448;2024-03-23T09:52:45;100122.28;;;8.25;80.51
18765;BME280;9511;54.242;12.448;2024-03-23T09:55:13;100120.63;;;8.29;79.82
18765;BME280;9511;54.242;12.448;2024-03-23T09:57:39;100112.94;;;8.37;79.47
18765;BME280;9511;54.242;12.448;2024-03-23T10:00:07;100119.94;;;8.36;78.87
18765;BME280;9511;54.242;12.448;2024-03-23T10:02:34;100111.56;;;8.54;76.67
18765;BME280;9511;54.242;12.448;2024-03-23T10:05:02;100113.69;;;8.70;76.42
18765;BME280;9511;54.242;12.448;2024-03-23T10:07:30;100101.50;;;8.75;76.25
18765;BME280;9511;54.242;12.448;2024-03-23T10:09:58;100103.09;;;8.67;74.27
18765;BME280;9511;54.242;12.448;2024-03-23T10:12:24;100102.34;;;8.73;75.64
18765;BME280;9511;54.242;12.448;2024-03-23T10:14:51;100087.69;;;8.87;73.52
18765;BME280;9511;54.242;12.448;2024-03-23T10:17:19;100092.19;;;8.91;73.28
18765;BME280;9511;54.242;12.448;2024-03-23T10:19:50;100086.66;;;8.79;72.04
18765;BME280;9511;54.242;12.448;2024-03-23T10:22:18;100095.69;;;8.90;71.87
18765;BME280;9511;54.242;12.448;2024-03-23T10:24:47;100085.00;;;8.84;70.58
18765;BME280;9511;54.242;12.448;2024-03-23T10:27:15;100091.69;;;8.68;69.74
18765;BME280;9511;54.242;12.448;2024-03-23T10:29:43;100095.19;;;8.67;69.95
18765;BME280;9511;54.242;12.448;2024-03-23T10:32:10;100081.31;;;8.76;68.54
18765;BME280;9511;54.242;12.448;2024-03-23T10:34:38;100087.66;;;8.86;67.34
18765;BME280;9511;54.242;12.448;2024-03-23T10:37:05;100075.31;;;8.83;67.26
18765;BME280;9511;54.242;12.448;2024-03-23T10:39:35;100072.56;;;9.22;66.53
18765;BME280;9511;54.242;12.448;2024-03-23T10:42:07;100071.31;;;9.49;65.48
18765;BME280;9511;54.242;12.448;2024-03-23T10:44:36;100064.88;;;9.81;63.46
18765;BME280;9511;54.242;12.448;2024-03-23T10:47:03;100057.28;;;9.51;63.74
18765;BME280;9511;54.242;12.448;2024-03-23T10:49:32;100056.16;;;9.89;62.96
18765;BME280;9511;54.242;12.448;2024-03-23T10:52:00;100064.13;;;9.90;62.71
18765;BME280;9511;54.242;12.448;2024-03-23T10:54:27;100059.59;;;9.35;60.76
18765;BME280;9511;54.242;12.448;2024-03-23T10:56:58;100057.28;;;9.04;62.04
18765;BME280;9511;54.242;12.448;2024-03-23T10:59:29;100062.41;;;8.97;60.69
18765;BME280;9511;54.242;12.448;2024-03-23T11:01:56;100060.44;;;9.32;59.87
18765;BME280;9511;54.242;12.448;2024-03-23T11:04:31;100050.50;;;9.64;59.72
18765;BME280;9511;54.242;12.448;2024-03-23T11:06:57;100045.84;;;9.51;58.96
18765;BME280;9511;54.242;12.448;2024-03-23T11:09:41;100052.28;;;9.68;59.20
18765;BME280;9511;54.242;12.448;2024-03-23T11:12:27;100047.28;;;9.83;59.51
18765;BME280;9511;54.242;12.448;2024-03-23T11:15:01;100045.97;;;10.10;58.53
18765;BME280;9511;54.242;12.448;2024-03-23T11:17:28;100040.84;;;10.22;59.03
18765;BME280;9511;54.242;12.448;2024-03-23T11:19:57;100036.91;;;10.55;60.38
18765;BME280;9511;54.242;12.448;2024-03-23T11:22:39;100051.31;;;10.77;59.72
18765;BME280;9511;54.242;12.448;2024-03-23T11:25:14;100049.00;;;10.37;60.23
18765;BME280;9511;54.242;12.448;2024-03-23T11:27:40;100047.47;;;10.52;61.07
18765;BME280;9511;54.242;12.448;2024-03-23T11:30:14;100036.19;;;10.06;61.26
18765;BME280;9511;54.242;12.448;2024-03-23T11:32:41;100033.97;;;9.76;61.98
18765;BME280;9511;54.242;12.448;2024-03-23T11:35:09;100039.75;;;9.56;62.48
18765;BME280;9511;54.242;12.448;2024-03-23T11:37:37;100044.19;;;9.57;63.03
18765;BME280;9511;54.242;12.448;2024-03-23T11:40:19;100045.78;;;10.01;61.96
18765;BME280;9511;54.242;12.448;2024-03-23T11:42:46;100035.94;;;10.47;60.82
18765;BME280;9511;54.242;12.448;2024-03-23T11:45:18;100029.47;;;10.92;61.09
18765;BME280;9511;54.242;12.448;2024-03-23T11:47:44;100037.78;;;10.54;58.08
18765;BME280;9511;54.242;12.448;2024-03-23T11:50:19;100032.03;;;10.84;58.55
18765;BME280;9511;54.242;12.448;2024-03-23T11:52:45;100022.56;;;11.06;56.59
18765;BME280;9511;54.242;12.448;2024-03-23T11:55:12;100018.06;;;10.97;54.57
18765;BME280;9511;54.242;12.448;2024-03-23T11:57:38;100019.25;;;11.25;53.69
18765;BME280;9511;54.242;12.448;2024-03-23T12:00:23;100024.25;;;10.98;53.81
18765;BME280;9511;54.242;12.448;2024-03-23T12:02:49;100012.72;;;10.91;54.67
18765;BME280;9511;54.242;12.448;2024-03-23T12:05:17;100017.56;;;11.32;54.76
18765;BME280;9511;54.242;12.448;2024-03-23T12:07:43;100016.00;;;11.57;54.03
18765;BME280;9511;54.242;12.448;2024-03-23T12:10:10;100019.13;;;11.13;55.42
18765;BME280;9511;54.242;12.448;2024-03-23T12:12:36;100046.97;;;10.80;58.03
18765;BME280;9511;54.242;12.448;2024-03-23T12:15:05;100058.44;;;9.66;64.27
18765;BME280;9511;54.242;12.448;2024-03-23T12:17:33;100082.09;;;9.61;66.12
18765;BME280;9511;54.242;12.448;2024-03-23T12:20:02;100069.44;;;9.42;66.68
18765;BME280;9511;54.242;12.448;2024-03-23T12:22:28;100064.09;;;9.39;65.96
18765;BME280;9511;54.242;12.448;2024-03-23T12:24:56;100085.81;;;9.24;66.85
18765;BME280;9511;54.242;12.448;2024-03-23T12:27:22;100072.47;;;8.72;66.76
18765;BME280;9511;54.242;12.448;2024-03-23T12:29:50;100084.94;;;8.81;67.87
18765;BME280;9511;54.242;12.448;2024-03-23T12:32:16;100078.59;;;8.34;68.49
18765;BME280;9511;54.242;12.448;2024-03-23T12:34:45;100063.94;;;8.45;68.59
18765;BME280;9511;54.242;12.448;2024-03-23T12:37:13;100075.91;;;8.70;67.60
18765;BME280;9511;54.242;12.448;2024-03-23T12:39:40;100061.16;;;8.37;68.52
18765;BME280;9511;54.242;12.448;2024-03-23T12:42:06;100072.31;;;8.66;68.57
18765;BME280;9511;54.242;12.448;2024-03-23T12:44:34;100079.81;;;8.48;68.55
18765;BME280;9511;54.242;12.448;2024-03-23T12:47:00;100076.56;;;8.60;69.38
18765;BME280;9511;54.242;12.448;2024-03-23T12:49:27;100055.69;;;8.70;68.24
18765;BME280;9511;54.242;12.448;2024-03-23T12:51:55;100060.41;;;9.29;68.02
18765;BME280;9511;54.242;12.448;2024-03-23T12:54:23;100072.75;;;9.31;67.17
18765;BME280;9511;54.242;12.448;2024-03-23T12:56:49;100063.13;;;9.83;66.01
18765;BME280;9511;54.242;12.448;2024-03-23T12:59:16;100066.09;;;10.03;65.48
18765;BME280;9511;54.242;12.448;2024-03-23T13:01:44;100072.72;;;10.31;65.25
18765;BME280;9511;54.242;12.448;2024-03-23T13:04:11;100059.97;;;10.06;64.41
18765;BME280;9511;54.242;12.448;2024-03-23T13:06:37;100060.38;;;9.76;64.88
18765;BME280;9511;54.242;12.448;2024-03-23T13:09:06;100067.03;;;9.54;65.21
18765;BME280;9511;54.242;12.448;2024-03-23T13:11:32;100063.66;;;9.17;65.20
18765;BME280;9511;54.242;12.448;2024-03-23T13:13:59;100061.75;;;9.07;65.38
18765;BME280;9511;54.242;12.448;2024-03-23T13:16:25;100069.31;;;9.85;64.04
18765;BME280;9511;54.242;12.448;2024-03-23T13:18:52;100052.91;;;10.05;63.59
18765;BME280;9511;54.242;12.448;2024-03-23T13:21:19;100057.91;;;11.08;62.56
18765;BME280;9511;54.242;12.448;2024-03-23T13:23:47;100047.81;;;11.57;60.56
18765;BME280;9511;54.242;12.448;2024-03-23T13:26:17;100032.88;;;11.65;59.96
18765;BME280;9511;54.242;12.448;2024-03-23T13:28:44;100033.56;;;11.46;59.39
18765;BME280;9511;54.242;12.448;2024-03-23T13:31:10;100037.53;;;11.90;58.33
18765;BME280;9511;54.242;12.448;2024-03-23T13:33:37;100039.25;;;11.85;57.03
18765;BME280;9511;54.242;12.448;2024-03-23T13:36:04;100031.78;;;12.51;56.37
18765;BME280;9511;54.242;12.448;2024-03-23T13:38:31;100031.63;;;11.26;57.14
18765;BME280;9511;54.242;12.448;2024-03-23T13:40:58;100045.28;;;10.88;58.34
18765;BME280;9511;54.242;12.448;2024-03-23T13:43:27;100035.22;;;10.01;59.17
18765;BME280;9511;54.242;12.448;2024-03-23T13:45:55;100038.00;;;9.57;59.07